createdAt,value
2018-06-29T00:00:16.751Z,4.30
2018-06-29T00:01:16.719Z,4.60
2018-06-29T00:02:16.703Z,3.60
2018-06-29T00:03:16.655Z,8.00
2018-06-29T00:04:16.640Z,5.60
2018-06-29T00:05:16.629Z,6.50
2018-06-29T00:06:16.567Z,5.90
2018-06-29T00:07:16.533Z,10.30
2018-06-29T00:08:16.549Z,7.60
2018-06-29T00:09:16.472Z,7.50
2018-06-29T00:10:16.421Z,4.10
2018-06-29T00:11:16.412Z,9.20
2018-06-29T00:12:16.402Z,6.50
2018-06-29T00:13:16.350Z,6.10
2018-06-29T00:14:16.322Z,4.40
2018-06-29T00:15:16.291Z,5.20
2018-06-29T00:16:16.260Z,10.30
2018-06-29T00:17:16.241Z,20.40
2018-06-29T00:18:16.182Z,11.80
2018-06-29T00:19:16.165Z,5.40
2018-06-29T00:20:16.132Z,7.40
2018-06-29T00:21:16.074Z,8.70
2018-06-29T00:22:16.072Z,6.00
2018-06-29T00:23:16.012Z,5.20
2018-06-29T00:24:16.037Z,5.30
2018-06-29T00:25:15.984Z,6.90
2018-06-29T00:26:15.958Z,5.60
2018-06-29T00:27:16.105Z,10.80
2018-06-29T00:28:15.844Z,6.10
2018-06-29T00:29:15.817Z,6.60
2018-06-29T00:30:15.895Z,7.40
2018-06-29T00:31:15.816Z,5.30
2018-06-29T00:32:15.717Z,10.30
2018-06-29T00:33:15.711Z,4.20
2018-06-29T00:34:15.698Z,6.00
2018-06-29T00:35:15.658Z,6.30
2018-06-29T00:36:15.590Z,7.50
2018-06-29T00:37:15.569Z,4.30
2018-06-29T00:38:15.552Z,4.60
2018-06-29T00:39:15.495Z,4.80
2018-06-29T00:40:15.486Z,7.90
2018-06-29T00:41:15.441Z,6.90
2018-06-29T00:42:15.425Z,7.90
2018-06-29T00:43:15.378Z,5.70
2018-06-29T00:44:15.351Z,5.60
2018-06-29T00:45:15.318Z,7.20
2018-06-29T00:46:15.275Z,6.20
2018-06-29T00:47:15.288Z,8.70
2018-06-29T00:48:15.232Z,9.80
2018-06-29T00:49:15.241Z,6.40
2018-06-29T00:50:15.149Z,5.20
2018-06-29T00:51:15.121Z,7.70
2018-06-29T00:52:15.101Z,8.80
2018-06-29T00:53:15.141Z,5.40
2018-06-29T00:54:15.035Z,8.00
2018-06-29T00:55:15.005Z,6.90
2018-06-29T00:56:14.954Z,4.90
2018-06-29T00:57:14.929Z,7.40
2018-06-29T00:58:14.914Z,9.90
2018-06-29T00:59:14.897Z,8.10
2018-06-29T01:00:14.845Z,4.90
2018-06-29T01:01:14.807Z,4.70
2018-06-29T01:02:14.760Z,6.60
2018-06-29T01:03:14.727Z,6.70
2018-06-29T01:04:14.699Z,8.40
2018-06-29T01:05:14.697Z,8.80
2018-06-29T01:06:14.635Z,6.60
2018-06-29T01:07:14.662Z,7.10
2018-06-29T01:08:14.649Z,6.90
2018-06-29T01:09:14.564Z,14.00
2018-06-29T01:10:14.513Z,11.60
2018-06-29T01:11:14.473Z,9.30
2018-06-29T01:12:14.445Z,10.10
2018-06-29T01:13:14.481Z,10.20
2018-06-29T01:14:14.413Z,6.70
2018-06-29T01:15:14.347Z,11.40
2018-06-29T01:16:14.343Z,9.40
2018-06-29T01:17:14.279Z,8.90
2018-06-29T01:18:14.266Z,7.20
2018-06-29T01:19:14.223Z,6.40
2018-06-29T01:20:14.190Z,7.80
2018-06-29T01:21:14.150Z,10.80
2018-06-29T01:22:14.118Z,6.60
2018-06-29T01:23:14.099Z,8.80
2018-06-29T01:24:14.065Z,9.50
2018-06-29T01:25:14.037Z,9.30
2018-06-29T01:26:14.089Z,7.90
2018-06-29T01:27:13.967Z,5.90
2018-06-29T01:28:13.956Z,7.70
2018-06-29T01:29:13.955Z,8.60
2018-06-29T01:30:13.882Z,8.90
2018-06-29T01:31:13.835Z,7.80
2018-06-29T01:32:13.803Z,8.70
2018-06-29T01:33:13.776Z,7.20
2018-06-29T01:34:13.845Z,9.60
2018-06-29T01:35:13.710Z,6.70
2018-06-29T01:36:13.683Z,10.50
2018-06-29T01:37:13.665Z,8.30
2018-06-29T01:38:13.611Z,10.20
2018-06-29T01:39:13.579Z,9.50
2018-06-29T01:40:13.583Z,9.50
2018-06-29T01:41:13.512Z,8.50
2018-06-29T01:42:14.475Z,8.10
2018-06-29T01:43:13.448Z,6.60
2018-06-29T01:44:14.521Z,10.50
2018-06-29T01:45:13.996Z,7.50
2018-06-29T01:46:13.359Z,8.10
2018-06-29T01:47:13.358Z,6.30
2018-06-29T01:48:13.299Z,7.70
2018-06-29T01:49:13.282Z,11.80
2018-06-29T01:50:13.243Z,8.10
2018-06-29T01:51:13.185Z,8.10
2018-06-29T01:52:13.232Z,7.50
2018-06-29T01:53:13.160Z,9.00
2018-06-29T01:54:13.095Z,10.40
2018-06-29T01:55:13.095Z,8.00
2018-06-29T01:56:13.035Z,6.60
2018-06-29T01:57:12.991Z,6.80
2018-06-29T01:58:12.995Z,10.40
2018-06-29T01:59:12.930Z,9.30
2018-06-29T02:00:12.899Z,11.20
2018-06-29T02:01:12.871Z,11.00
2018-06-29T02:02:12.830Z,16.00
2018-06-29T02:03:12.799Z,17.60
2018-06-29T02:04:12.800Z,15.30
2018-06-29T02:05:12.751Z,14.50
2018-06-29T02:06:12.701Z,13.30
2018-06-29T02:07:12.703Z,10.60
2018-06-29T02:08:12.641Z,11.40
2018-06-29T02:09:12.611Z,10.40
2018-06-29T02:10:12.591Z,10.80
2018-06-29T02:11:12.547Z,13.00
2018-06-29T02:12:12.516Z,6.50
2018-06-29T02:13:12.487Z,10.00
2018-06-29T02:14:12.477Z,8.40
2018-06-29T02:15:12.430Z,9.40
2018-06-29T02:16:12.380Z,8.20
2018-06-29T02:17:12.347Z,6.90
2018-06-29T02:18:12.313Z,9.90
2018-06-29T02:19:12.296Z,6.90
2018-06-29T02:20:12.274Z,7.00
2018-06-29T02:21:12.265Z,6.50
2018-06-29T02:22:12.190Z,12.00
2018-06-29T02:23:12.171Z,9.40
2018-06-29T02:24:12.134Z,9.50
2018-06-29T02:25:12.094Z,8.50
2018-06-29T02:26:12.050Z,10.30
2018-06-29T02:27:12.019Z,14.40
2018-06-29T02:28:12.008Z,9.70
2018-06-29T02:29:11.998Z,14.90
2018-06-29T02:30:11.922Z,15.60
2018-06-29T02:31:11.929Z,10.60
2018-06-29T02:32:11.857Z,11.70
2018-06-29T02:33:11.828Z,7.80
2018-06-29T02:34:11.802Z,11.30
2018-06-29T02:35:11.769Z,15.30
2018-06-29T02:36:11.746Z,17.00
2018-06-29T02:37:11.696Z,11.90
2018-06-29T02:38:11.669Z,10.20
2018-06-29T02:39:11.630Z,12.70
2018-06-29T02:40:11.614Z,11.70
2018-06-29T02:41:11.601Z,8.20
2018-06-29T02:42:11.565Z,12.50
2018-06-29T02:43:11.506Z,8.40
2018-06-29T02:44:11.468Z,8.00
2018-06-29T02:45:11.684Z,11.80
2018-06-29T02:46:11.398Z,9.30
2018-06-29T02:47:11.373Z,17.90
2018-06-29T02:48:11.340Z,8.10
2018-06-29T02:49:11.312Z,12.10
2018-06-29T02:50:11.281Z,9.70
2018-06-29T02:51:11.239Z,12.90
2018-06-29T02:52:11.222Z,8.40
2018-06-29T02:53:11.181Z,11.20
2018-06-29T02:54:11.151Z,11.80
2018-06-29T02:55:11.111Z,13.40
2018-06-29T02:56:11.078Z,10.60
2018-06-29T02:57:11.045Z,11.40
2018-06-29T02:58:11.054Z,14.00
2018-06-29T02:59:10.990Z,10.20
2018-06-29T03:00:10.966Z,21.50
2018-06-29T03:01:10.922Z,11.00
2018-06-29T03:02:10.890Z,16.10
2018-06-29T03:03:10.851Z,14.40
2018-06-29T03:04:10.831Z,8.40
2018-06-29T03:05:10.785Z,12.20
2018-06-29T03:06:10.754Z,12.10
2018-06-29T03:07:10.723Z,9.70
2018-06-29T03:08:10.689Z,10.80
2018-06-29T03:09:10.653Z,7.90
2018-06-29T03:10:10.661Z,8.70
2018-06-29T03:11:10.584Z,10.00
2018-06-29T03:12:10.553Z,16.20
2018-06-29T03:13:10.532Z,8.60
2018-06-29T03:14:10.525Z,18.00
2018-06-29T03:15:10.493Z,9.30
2018-06-29T03:16:10.430Z,12.20
2018-06-29T03:17:10.389Z,12.10
2018-06-29T03:18:10.362Z,10.20
2018-06-29T03:19:10.322Z,12.90
2018-06-29T03:20:10.295Z,16.40
2018-06-29T03:21:10.268Z,10.30
2018-06-29T03:22:10.232Z,9.70
2018-06-29T03:23:10.225Z,8.80
2018-06-29T03:24:10.167Z,6.70
2018-06-29T03:25:10.195Z,9.00
2018-06-29T03:26:10.107Z,8.20
2018-06-29T03:27:10.064Z,12.30
2018-06-29T03:28:10.046Z,8.50
2018-06-29T03:29:10.017Z,13.30
2018-06-29T03:30:09.979Z,12.10
2018-06-29T03:31:09.941Z,7.90
2018-06-29T03:32:09.921Z,11.20
2018-06-29T03:33:09.881Z,7.50
2018-06-29T03:34:09.835Z,7.30
2018-06-29T03:35:09.813Z,8.90
2018-06-29T03:36:09.777Z,8.70
2018-06-29T03:37:09.757Z,10.50
2018-06-29T03:38:09.707Z,7.70
2018-06-29T03:39:09.674Z,13.70
2018-06-29T03:40:09.649Z,12.10
2018-06-29T03:41:09.612Z,14.20
2018-06-29T03:42:09.586Z,9.90
2018-06-29T03:43:09.549Z,10.00
2018-06-29T03:44:09.557Z,7.10
2018-06-29T03:45:09.482Z,14.70
2018-06-29T03:46:09.448Z,13.90
2018-06-29T03:47:09.413Z,8.10
2018-06-29T03:48:09.385Z,14.10
2018-06-29T03:49:09.346Z,7.30
2018-06-29T03:50:09.314Z,8.80
2018-06-29T03:51:09.310Z,9.00
2018-06-29T03:52:09.252Z,12.50
2018-06-29T03:53:09.211Z,8.00
2018-06-29T03:54:09.196Z,11.30
2018-06-29T03:55:09.152Z,6.70
2018-06-29T03:56:09.119Z,12.60
2018-06-29T03:57:09.085Z,7.60
2018-06-29T03:58:09.053Z,10.70
2018-06-29T03:59:09.174Z,9.10
2018-06-29T04:00:08.990Z,12.60
2018-06-29T04:01:08.956Z,11.80
2018-06-29T04:02:08.937Z,15.60
2018-06-29T04:03:08.891Z,9.30
2018-06-29T04:04:08.853Z,11.20
2018-06-29T04:05:08.825Z,15.50
2018-06-29T04:06:08.796Z,12.80
2018-06-29T04:07:08.761Z,15.00
2018-06-29T04:08:08.729Z,10.60
2018-06-29T04:09:08.689Z,9.80
2018-06-29T04:10:08.663Z,10.40
2018-06-29T04:11:08.629Z,12.40
2018-06-29T04:12:08.599Z,16.10
2018-06-29T04:13:08.564Z,16.20
2018-06-29T04:14:08.530Z,16.60
2018-06-29T04:15:08.500Z,12.90
2018-06-29T04:16:08.515Z,18.90
2018-06-29T04:17:08.444Z,19.60
2018-06-29T04:18:08.403Z,17.70
2018-06-29T04:19:08.371Z,18.10
2018-06-29T04:20:08.335Z,12.00
2018-06-29T04:21:08.306Z,10.50
2018-06-29T04:22:08.266Z,11.00
2018-06-29T04:23:08.242Z,9.10
2018-06-29T04:24:08.209Z,14.70
2018-06-29T04:25:08.175Z,11.10
2018-06-29T04:26:08.144Z,10.00
2018-06-29T04:27:08.112Z,11.60
2018-06-29T04:28:08.091Z,20.00
2018-06-29T04:29:08.042Z,18.50
2018-06-29T04:30:08.008Z,13.90
2018-06-29T04:31:07.980Z,13.10
2018-06-29T04:32:07.947Z,13.30
2018-06-29T04:33:08.006Z,17.00
2018-06-29T04:34:07.886Z,25.90
2018-06-29T04:35:07.854Z,15.40
2018-06-29T04:36:07.831Z,16.40
2018-06-29T04:37:07.787Z,19.70
2018-06-29T04:38:07.755Z,19.90
2018-06-29T04:39:07.724Z,27.00
2018-06-29T04:40:07.691Z,12.00
2018-06-29T04:41:07.674Z,16.50
2018-06-29T04:42:07.622Z,12.60
2018-06-29T04:43:07.594Z,17.60
2018-06-29T04:44:07.586Z,12.40
2018-06-29T04:45:07.538Z,11.80
2018-06-29T04:46:07.499Z,14.50
2018-06-29T04:47:07.466Z,16.10
2018-06-29T04:48:07.440Z,20.00
2018-06-29T04:49:07.400Z,15.10
2018-06-29T04:50:07.375Z,20.00
2018-06-29T04:51:07.333Z,17.60
2018-06-29T04:52:07.310Z,11.30
2018-06-29T04:53:07.277Z,19.50
2018-06-29T04:54:07.245Z,13.60
2018-06-29T04:55:07.212Z,17.70
2018-06-29T04:56:07.183Z,19.50
2018-06-29T04:57:07.147Z,19.70
2018-06-29T04:58:07.119Z,23.40
2018-06-29T04:59:07.081Z,17.70
2018-06-29T05:00:07.069Z,14.60
2018-06-29T05:01:07.024Z,17.20
2018-06-29T05:02:06.992Z,14.40
2018-06-29T05:03:06.960Z,14.00
2018-06-29T05:04:06.929Z,15.10
2018-06-29T05:05:06.899Z,11.90
2018-06-29T05:06:06.868Z,14.50
2018-06-29T05:07:06.832Z,20.40
2018-06-29T05:08:06.802Z,14.00
2018-06-29T05:09:06.773Z,20.40
2018-06-29T05:10:06.741Z,13.50
2018-06-29T05:11:06.709Z,17.80
2018-06-29T05:12:06.677Z,15.50
2018-06-29T05:13:06.648Z,20.20
2018-06-29T05:14:06.617Z,14.00
2018-06-29T05:15:06.583Z,12.90
2018-06-29T05:16:06.558Z,17.00
2018-06-29T05:17:06.524Z,17.30
2018-06-29T05:18:06.489Z,16.10
2018-06-29T05:19:06.460Z,19.40
2018-06-29T05:20:06.431Z,12.30
2018-06-29T05:21:06.399Z,11.20
2018-06-29T05:22:06.369Z,20.10
2018-06-29T05:23:06.337Z,15.00
2018-06-29T05:24:06.304Z,19.80
2018-06-29T05:25:06.276Z,9.50
2018-06-29T05:26:06.247Z,13.80
2018-06-29T05:27:06.213Z,16.30
2018-06-29T05:28:06.181Z,17.40
2018-06-29T05:29:06.151Z,14.40
2018-06-29T05:30:06.121Z,17.60
2018-06-29T05:31:06.082Z,15.10
2018-06-29T05:32:06.077Z,12.00
2018-06-29T05:33:06.030Z,15.50
2018-06-29T05:34:05.999Z,15.70
2018-06-29T05:35:06.528Z,18.60
2018-06-29T05:36:05.942Z,20.30
2018-06-29T05:37:06.528Z,39.60
2018-06-29T05:38:05.877Z,25.40
2018-06-29T05:39:05.841Z,13.50
2018-06-29T05:40:05.818Z,29.20
2018-06-29T05:41:05.787Z,112.90
2018-06-29T05:42:05.757Z,91.90
2018-06-29T05:43:05.723Z,31.20
2018-06-29T05:44:05.694Z,25.40
2018-06-29T05:45:05.658Z,26.00
2018-06-29T05:46:05.657Z,37.70
2018-06-29T05:47:05.616Z,29.60
2018-06-29T05:48:05.573Z,22.50
2018-06-29T05:49:05.544Z,20.60
2018-06-29T05:50:05.512Z,24.10
2018-06-29T05:51:05.486Z,16.00
2018-06-29T05:52:05.452Z,26.20
2018-06-29T05:53:05.465Z,14.40
2018-06-29T05:54:05.400Z,13.70
2018-06-29T05:55:05.364Z,19.90
2018-06-29T05:56:05.331Z,18.10
2018-06-29T05:57:05.308Z,13.70
2018-06-29T05:58:05.275Z,28.70
2018-06-29T05:59:05.245Z,18.80
2018-06-29T06:00:05.214Z,22.10
2018-06-29T06:01:05.186Z,22.80
2018-06-29T06:02:05.161Z,31.40
2018-06-29T06:03:05.125Z,19.40
2018-06-29T06:04:05.096Z,15.70
2018-06-29T06:05:05.069Z,44.00
2018-06-29T06:06:05.039Z,28.00
2018-06-29T06:07:05.007Z,14.50
2018-06-29T06:08:04.978Z,13.10
2018-06-29T06:09:04.949Z,15.60
2018-06-29T06:10:04.972Z,19.90
2018-06-29T06:11:04.891Z,12.70
2018-06-29T06:12:04.862Z,11.60
2018-06-29T06:13:04.834Z,11.50
2018-06-29T06:14:04.805Z,11.60
2018-06-29T06:15:04.772Z,14.10
2018-06-29T06:16:04.766Z,14.50
2018-06-29T06:17:04.720Z,12.20
2018-06-29T06:18:04.689Z,9.40
2018-06-29T06:19:04.660Z,13.00
2018-06-29T06:20:04.635Z,15.70
2018-06-29T06:21:04.655Z,13.30
2018-06-29T06:22:04.640Z,11.80
2018-06-29T06:23:04.544Z,12.30
2018-06-29T06:24:04.516Z,11.80
2018-06-29T06:25:04.487Z,17.30
2018-06-29T06:26:04.458Z,24.20
2018-06-29T06:27:04.432Z,26.60
2018-06-29T06:28:04.403Z,11.80
2018-06-29T06:29:04.374Z,42.30
2018-06-29T06:30:04.337Z,30.10
2018-06-29T06:31:04.316Z,24.50
2018-06-29T06:32:04.291Z,15.40
2018-06-29T06:33:04.267Z,19.60
2018-06-29T06:34:04.229Z,17.00
2018-06-29T06:35:04.202Z,14.20
2018-06-29T06:36:04.175Z,11.10
2018-06-29T06:37:04.147Z,17.40
2018-06-29T06:38:04.124Z,11.00
2018-06-29T06:39:04.091Z,9.50
2018-06-29T06:40:04.067Z,14.80
2018-06-29T06:41:04.071Z,11.50
2018-06-29T06:42:04.007Z,19.90
2018-06-29T06:43:03.977Z,15.10
2018-06-29T06:44:03.947Z,8.20
2018-06-29T06:45:03.919Z,18.60
2018-06-29T06:46:03.894Z,27.90
2018-06-29T06:47:03.954Z,12.60
2018-06-29T06:48:03.839Z,9.50
2018-06-29T06:49:03.809Z,18.00
2018-06-29T06:50:03.785Z,21.10
2018-06-29T06:51:03.755Z,17.40
2018-06-29T06:52:03.726Z,17.80
2018-06-29T06:53:03.695Z,14.00
2018-06-29T06:54:03.672Z,13.50
2018-06-29T06:55:03.641Z,15.40
2018-06-29T06:56:03.617Z,34.90
2018-06-29T06:57:03.592Z,13.20
2018-06-29T06:58:03.559Z,34.80
2018-06-29T06:59:03.533Z,33.70
2018-06-29T07:00:03.503Z,16.70
2018-06-29T07:01:03.473Z,16.40
2018-06-29T07:02:03.448Z,14.40
2018-06-29T07:03:03.419Z,22.00
2018-06-29T07:04:03.391Z,16.80
2018-06-29T07:05:03.366Z,16.60
2018-06-29T07:06:03.438Z,12.40
2018-06-29T07:07:03.303Z,10.40
2018-06-29T07:08:03.799Z,16.00
2018-06-29T07:09:03.282Z,10.90
2018-06-29T07:10:03.226Z,15.70
2018-06-29T07:11:03.199Z,13.70
2018-06-29T07:12:03.171Z,13.80
2018-06-29T07:13:03.144Z,12.60
2018-06-29T07:14:03.109Z,10.90
2018-06-29T07:15:03.090Z,10.10
2018-06-29T07:16:03.060Z,12.70
2018-06-29T07:17:03.035Z,14.20
2018-06-29T07:18:03.008Z,14.80
2018-06-29T07:19:02.980Z,9.00
2018-06-29T07:20:02.953Z,10.30
2018-06-29T07:21:02.937Z,11.90
2018-06-29T07:22:02.898Z,10.60
2018-06-29T07:23:02.872Z,13.80
2018-06-29T07:24:02.864Z,17.20
2018-06-29T07:25:02.821Z,12.90
2018-06-29T07:26:02.795Z,12.00
2018-06-29T07:27:02.766Z,13.00
2018-06-29T07:28:02.740Z,15.10
2018-06-29T07:29:02.713Z,10.40
2018-06-29T07:30:02.723Z,10.30
2018-06-29T07:31:02.660Z,13.70
2018-06-29T07:32:02.634Z,11.50
2018-06-29T07:33:02.616Z,9.50
2018-06-29T07:34:02.583Z,9.00
2018-06-29T07:35:02.551Z,9.50
2018-06-29T07:36:02.534Z,8.70
2018-06-29T07:37:02.504Z,9.10
2018-06-29T07:38:02.476Z,11.20
2018-06-29T07:39:02.450Z,9.90
2018-06-29T07:40:02.427Z,11.30
2018-06-29T07:41:02.400Z,13.00
2018-06-29T07:42:02.375Z,10.90
2018-06-29T07:43:02.347Z,8.80
2018-06-29T07:44:02.323Z,6.60
2018-06-29T07:45:02.291Z,13.00
2018-06-29T07:46:02.272Z,7.50
2018-06-29T07:47:02.249Z,8.70
2018-06-29T07:48:02.222Z,10.40
2018-06-29T07:49:02.198Z,7.80
2018-06-29T07:50:02.167Z,5.60
2018-06-29T07:51:02.146Z,6.60
2018-06-29T07:52:02.116Z,8.20
2018-06-29T07:53:02.097Z,14.50
2018-06-29T07:54:02.068Z,7.30
2018-06-29T07:55:02.040Z,11.00
2018-06-29T07:56:02.016Z,8.40
2018-06-29T07:57:01.991Z,9.20
2018-06-29T07:58:02.019Z,7.30
2018-06-29T07:59:01.942Z,8.60
2018-06-29T08:00:01.918Z,8.50
2018-06-29T08:01:01.890Z,10.70
2018-06-29T08:02:01.866Z,7.70
2018-06-29T08:03:01.841Z,7.30
2018-06-29T08:04:01.822Z,5.80
2018-06-29T08:05:01.790Z,10.10
2018-06-29T08:06:01.766Z,7.70
2018-06-29T08:07:01.739Z,10.20
2018-06-29T08:08:01.716Z,7.20
2018-06-29T08:09:01.716Z,10.80
2018-06-29T08:10:01.669Z,10.20
2018-06-29T08:11:01.640Z,8.80
2018-06-29T08:12:01.614Z,10.90
2018-06-29T08:13:01.590Z,7.20
2018-06-29T08:14:01.566Z,7.90
2018-06-29T08:15:01.539Z,8.20
2018-06-29T08:16:01.516Z,7.40
2018-06-29T08:17:01.494Z,8.80
2018-06-29T08:18:01.468Z,7.20
2018-06-29T08:19:01.466Z,6.80
2018-06-29T08:20:01.420Z,12.60
2018-06-29T08:21:01.395Z,7.70
2018-06-29T08:22:01.423Z,6.40
2018-06-29T08:23:01.345Z,10.60
2018-06-29T08:24:01.321Z,13.40
2018-06-29T08:25:01.295Z,9.50
2018-06-29T08:26:01.270Z,12.60
2018-06-29T08:27:01.245Z,8.50
2018-06-29T08:28:01.220Z,7.10
2018-06-29T08:29:01.199Z,8.70
2018-06-29T08:30:01.173Z,10.00
2018-06-29T08:31:01.148Z,10.10
2018-06-29T08:32:01.124Z,10.30
2018-06-29T08:33:01.099Z,8.10
2018-06-29T08:34:01.101Z,5.10
2018-06-29T08:35:01.053Z,5.80
2018-06-29T08:36:01.025Z,11.00
2018-06-29T08:37:01.003Z,10.20
2018-06-29T08:38:00.980Z,7.90
2018-06-29T08:39:00.954Z,5.30
2018-06-29T08:40:00.932Z,6.90
2018-06-29T08:41:00.903Z,7.80
2018-06-29T08:42:00.881Z,8.70
2018-06-29T08:43:00.883Z,5.50
2018-06-29T08:44:00.854Z,4.50
2018-06-29T08:45:00.807Z,4.60
2018-06-29T08:46:00.787Z,6.10
2018-06-29T08:47:00.818Z,7.70
2018-06-29T08:48:00.734Z,5.20
2018-06-29T08:49:00.717Z,9.00
2018-06-29T08:50:00.693Z,5.60
2018-06-29T08:51:00.696Z,4.70
2018-06-29T08:52:00.644Z,6.40
2018-06-29T08:53:00.615Z,5.40
2018-06-29T08:54:00.614Z,7.70
2018-06-29T08:55:00.635Z,5.10
2018-06-29T08:56:00.551Z,4.80
2018-06-29T08:57:00.527Z,3.80
2018-06-29T08:58:00.503Z,2.50
2018-06-29T08:59:00.481Z,6.70
2018-06-29T09:00:00.453Z,6.30
2018-06-29T09:01:00.463Z,6.00
2018-06-29T09:02:00.420Z,5.50
2018-06-29T09:03:00.385Z,6.10
2018-06-29T09:04:00.362Z,4.60
2018-06-29T09:05:00.418Z,6.70
2018-06-29T09:06:00.315Z,7.30
2018-06-29T09:07:00.306Z,5.60
2018-06-29T09:08:00.268Z,6.60
2018-06-29T09:09:00.246Z,3.60
2018-06-29T09:10:00.222Z,4.80
2018-06-29T09:11:00.259Z,5.20
2018-06-29T09:12:00.171Z,4.20
2018-06-29T09:13:00.149Z,2.70
2018-06-29T09:14:00.631Z,2.40
2018-06-29T09:15:00.102Z,3.90
2018-06-29T09:16:00.081Z,3.80
2018-06-29T09:17:00.054Z,4.80
2018-06-29T09:18:00.036Z,2.80
2018-06-29T09:19:00.045Z,3.80
2018-06-29T09:19:59.982Z,5.40
2018-06-29T09:20:59.960Z,4.60
2018-06-29T09:21:59.940Z,5.70
2018-06-29T09:22:59.911Z,5.50
2018-06-29T09:23:59.890Z,4.00
2018-06-29T09:24:59.865Z,4.30
2018-06-29T09:25:59.846Z,7.20
2018-06-29T09:26:59.825Z,2.50
2018-06-29T09:27:59.798Z,2.40
2018-06-29T09:28:59.772Z,5.50
2018-06-29T09:29:59.747Z,10.40
2018-06-29T09:30:59.723Z,3.50
2018-06-29T09:31:59.700Z,6.80
2018-06-29T09:32:59.680Z,7.10
2018-06-29T09:33:59.658Z,4.80
2018-06-29T09:34:59.630Z,3.80
2018-06-29T09:35:59.608Z,8.10
2018-06-29T09:36:59.585Z,6.30
2018-06-29T09:37:59.566Z,3.70
2018-06-29T09:38:59.540Z,6.40
2018-06-29T09:39:59.513Z,3.50
2018-06-29T09:40:59.488Z,2.90
2018-06-29T09:41:59.466Z,3.70
2018-06-29T09:42:59.447Z,3.30
2018-06-29T09:43:59.416Z,4.80
2018-06-29T09:44:59.403Z,4.50
2018-06-29T09:45:59.380Z,4.80
2018-06-29T09:46:59.347Z,4.70
2018-06-29T09:47:59.429Z,6.30
2018-06-29T09:48:59.301Z,3.80
2018-06-29T09:49:59.281Z,4.90
2018-06-29T09:50:59.276Z,3.50
2018-06-29T09:51:59.236Z,5.90
2018-06-29T09:52:59.211Z,5.00
2018-06-29T09:53:59.221Z,3.40
2018-06-29T09:54:59.165Z,4.90
2018-06-29T09:55:59.143Z,3.80
2018-06-29T09:56:59.118Z,8.70
2018-06-29T09:57:59.113Z,2.40
2018-06-29T09:58:59.072Z,2.50
2018-06-29T09:59:59.050Z,2.80
2018-06-29T10:00:59.055Z,3.60
2018-06-29T10:01:59.002Z,4.40
2018-06-29T10:02:58.980Z,3.10
2018-06-29T10:03:58.957Z,4.20
2018-06-29T10:04:58.933Z,4.40
2018-06-29T10:05:58.914Z,3.90
2018-06-29T10:06:58.894Z,2.10
2018-06-29T10:07:58.866Z,2.40
2018-06-29T10:08:58.840Z,5.60
2018-06-29T10:09:58.819Z,3.40
2018-06-29T10:10:58.794Z,3.80
2018-06-29T10:11:58.773Z,3.10
2018-06-29T10:12:58.769Z,5.00
2018-06-29T10:13:58.730Z,4.10
2018-06-29T10:14:58.704Z,1.80
2018-06-29T10:15:58.685Z,4.40
2018-06-29T10:16:58.661Z,2.50
2018-06-29T10:17:58.653Z,4.00
2018-06-29T10:18:58.638Z,2.60
2018-06-29T10:19:58.607Z,3.40
2018-06-29T10:20:58.572Z,3.80
2018-06-29T10:21:58.545Z,3.50
2018-06-29T10:22:58.523Z,6.50
2018-06-29T10:23:58.502Z,5.10
2018-06-29T10:24:58.471Z,2.50
2018-06-29T10:25:58.456Z,3.70
2018-06-29T10:26:58.433Z,4.60
2018-06-29T10:27:58.468Z,4.90
2018-06-29T10:28:58.410Z,4.60
2018-06-29T10:29:58.367Z,2.90
2018-06-29T10:30:58.345Z,2.20
2018-06-29T10:31:58.324Z,2.60
2018-06-29T10:32:58.329Z,3.90
2018-06-29T10:33:58.275Z,4.00
2018-06-29T10:34:58.253Z,3.00
2018-06-29T10:35:58.238Z,4.50
2018-06-29T10:36:58.215Z,6.00
2018-06-29T10:37:58.191Z,3.30
2018-06-29T10:38:58.166Z,5.10
2018-06-29T10:39:58.145Z,3.20
2018-06-29T10:40:58.122Z,2.90
2018-06-29T10:41:58.114Z,2.80
2018-06-29T10:42:58.094Z,1.90
2018-06-29T10:43:58.058Z,4.30
2018-06-29T10:44:58.100Z,5.50
2018-06-29T10:45:58.014Z,5.20
2018-06-29T10:46:57.990Z,1.60
2018-06-29T10:47:57.967Z,2.40
2018-06-29T10:48:57.944Z,5.60
2018-06-29T10:49:58.000Z,2.00
2018-06-29T10:50:57.902Z,3.40
2018-06-29T10:51:57.882Z,6.90
2018-06-29T10:52:57.971Z,2.50
2018-06-29T10:53:57.836Z,3.90
2018-06-29T10:54:58.160Z,2.40
2018-06-29T10:55:57.791Z,4.90
2018-06-29T10:56:57.771Z,5.70
2018-06-29T10:57:57.755Z,3.10
2018-06-29T10:58:57.731Z,1.30
2018-06-29T10:59:57.708Z,1.70
2018-06-29T11:00:57.682Z,2.50
2018-06-29T11:01:57.662Z,1.80
2018-06-29T11:02:57.638Z,2.20
2018-06-29T11:03:57.620Z,3.70
2018-06-29T11:04:57.598Z,2.10
2018-06-29T11:05:57.602Z,3.30
2018-06-29T11:06:57.556Z,2.00
2018-06-29T11:07:57.534Z,5.20
2018-06-29T11:08:57.512Z,2.80
2018-06-29T11:09:57.488Z,2.30
2018-06-29T11:10:57.535Z,2.60
2018-06-29T11:11:57.474Z,3.10
2018-06-29T11:12:57.425Z,4.50
2018-06-29T11:13:57.404Z,2.20
2018-06-29T11:14:57.501Z,4.00
2018-06-29T11:15:57.360Z,1.60
2018-06-29T11:16:57.339Z,2.90
2018-06-29T11:17:57.316Z,2.40
2018-06-29T11:18:57.295Z,3.70
2018-06-29T11:19:57.286Z,2.20
2018-06-29T11:20:57.246Z,2.10
2018-06-29T11:21:57.227Z,1.50
2018-06-29T11:22:57.208Z,3.20
2018-06-29T11:23:57.182Z,2.70
2018-06-29T11:24:57.186Z,2.40
2018-06-29T11:25:57.143Z,2.40
2018-06-29T11:26:57.120Z,1.30
2018-06-29T11:27:57.101Z,1.30
2018-06-29T11:28:57.079Z,2.60
2018-06-29T11:29:57.057Z,4.30
2018-06-29T11:30:57.036Z,5.90
2018-06-29T11:31:57.014Z,3.90
2018-06-29T11:32:56.992Z,6.00
2018-06-29T11:33:56.969Z,1.50
2018-06-29T11:34:56.953Z,2.30
2018-06-29T11:35:56.930Z,3.80
2018-06-29T11:36:56.902Z,2.10
2018-06-29T11:37:56.883Z,5.10
2018-06-29T11:38:56.864Z,2.20
2018-06-29T11:39:56.844Z,2.90
2018-06-29T11:40:56.822Z,3.60
2018-06-29T11:41:56.798Z,3.20
2018-06-29T11:42:56.773Z,1.70
2018-06-29T11:43:56.756Z,1.60
2018-06-29T11:44:56.735Z,2.80
2018-06-29T11:45:56.713Z,4.30
2018-06-29T11:46:56.692Z,3.50
2018-06-29T11:47:56.671Z,3.70
2018-06-29T11:48:56.669Z,2.90
2018-06-29T11:49:56.628Z,2.60
2018-06-29T11:50:56.607Z,2.20
2018-06-29T11:51:56.584Z,5.10
2018-06-29T11:52:56.565Z,2.20
2018-06-29T11:53:56.543Z,6.70
2018-06-29T11:54:56.520Z,4.60
2018-06-29T11:55:56.498Z,2.20
2018-06-29T11:56:56.479Z,3.40
2018-06-29T11:57:56.464Z,5.60
2018-06-29T11:58:56.436Z,4.80
2018-06-29T11:59:56.413Z,5.00
2018-06-29T12:00:56.393Z,2.30
2018-06-29T12:01:56.369Z,4.30
2018-06-29T12:02:56.351Z,5.70
2018-06-29T12:03:56.326Z,4.00
2018-06-29T12:04:56.307Z,1.90
2018-06-29T12:05:56.282Z,3.90
2018-06-29T12:06:56.261Z,3.50
2018-06-29T12:07:56.241Z,7.20
2018-06-29T12:08:56.232Z,2.70
2018-06-29T12:09:56.198Z,3.80
2018-06-29T12:10:56.174Z,1.90
2018-06-29T12:11:56.156Z,7.10
2018-06-29T12:12:56.135Z,4.70
2018-06-29T12:13:56.113Z,4.40
2018-06-29T12:14:56.159Z,5.90
2018-06-29T12:15:56.084Z,2.50
2018-06-29T12:16:56.048Z,2.80
2018-06-29T12:17:56.028Z,4.40
2018-06-29T12:18:56.005Z,2.10
2018-06-29T12:19:55.977Z,5.40
2018-06-29T12:20:56.098Z,3.20
2018-06-29T12:21:55.985Z,1.80
2018-06-29T12:22:55.917Z,4.70
2018-06-29T12:23:55.896Z,2.20
2018-06-29T12:24:55.874Z,1.60
2018-06-29T12:25:55.854Z,5.50
2018-06-29T12:26:55.842Z,2.60
2018-06-29T12:27:55.819Z,1.50
2018-06-29T12:28:55.786Z,3.50
2018-06-29T12:29:55.764Z,4.90
2018-06-29T12:30:55.742Z,7.00
2018-06-29T12:31:55.721Z,3.70
2018-06-29T12:32:55.699Z,2.20
2018-06-29T12:33:55.680Z,2.10
2018-06-29T12:34:55.655Z,2.80
2018-06-29T12:35:55.635Z,2.00
2018-06-29T12:36:55.611Z,3.00
2018-06-29T12:37:55.594Z,4.30
2018-06-29T12:38:55.571Z,3.20
2018-06-29T12:39:55.552Z,8.80
2018-06-29T12:40:55.522Z,2.00
2018-06-29T12:41:55.505Z,1.60
2018-06-29T12:42:55.483Z,4.50
2018-06-29T12:43:55.463Z,7.60
2018-06-29T12:44:55.441Z,3.80
2018-06-29T12:45:55.419Z,6.60
2018-06-29T12:46:55.397Z,3.80
2018-06-29T12:47:55.376Z,4.10
2018-06-29T12:48:55.382Z,5.10
2018-06-29T12:49:55.333Z,3.80
2018-06-29T12:50:56.252Z,3.20
2018-06-29T12:51:55.285Z,5.30
2018-06-29T12:52:56.253Z,3.80
2018-06-29T12:53:55.247Z,2.40
2018-06-29T12:54:55.224Z,3.60
2018-06-29T12:55:55.248Z,1.50
2018-06-29T12:56:55.185Z,2.20
2018-06-29T12:57:55.204Z,2.70
2018-06-29T12:58:55.133Z,2.10
2018-06-29T12:59:55.159Z,2.70
2018-06-29T13:00:55.095Z,2.10
2018-06-29T13:01:55.076Z,2.30
2018-06-29T13:02:55.070Z,3.80
2018-06-29T13:03:55.032Z,3.60
2018-06-29T13:04:55.009Z,1.20
2018-06-29T13:05:55.043Z,2.80
2018-06-29T13:06:54.962Z,1.90